Time;durP1;ratioP1;P1;durP2;ratioP2;P2;SDS_P1;SDS_P2;PMS_P1;PMS_P2;Temp;Humidity;BMP_temperature;BMP_pressure;BME280_temperature;BME280_humidity;BME280_pressure;Samples;Min_cycle;Max_cycle;Signal;HPM_P1;HPM_P2
2021/09/22 00:00:59;;;;;;;16.67;10.50;;;;;;;;;;5015302;28;20104;-81
2021/09/22 00:03:25;;;;;;;14.25;10.18;;;;;;;;;;5016534;28;20123;-80
2021/09/22 00:05:51;;;;;;;14.45;10.10;;;;;;;;;;5015190;28;20080;-79
2021/09/22 00:08:16;;;;;;;16.83;11.38;;;;;;;;;;5016257;28;20034;-79
2021/09/22 00:10:42;;;;;;;18.13;11.90;;;;;;;;;;5016715;28;20037;-81
2021/09/22 00:13:07;;;;;;;16.30;10.35;;;;;;;;;;5016099;28;20022;-80
2021/09/22 00:15:32;;;;;;;15.20;10.90;;;;;;;;;;5015361;28;20038;-81
2021/09/22 00:17:58;;;;;;;16.92;10.13;;;;;;;;;;5016610;28;20018;-80
2021/09/22 00:20:24;;;;;;;17.10;10.70;;;;;;;;;;5015972;28;20453;-79
2021/09/22 00:22:58;;;;;;;15.55;10.57;;;;;;;;;;5015337;28;20025;-80
2021/09/22 00:25:24;;;;;;;17.80;11.07;;;;;;;;;;5016576;28;20034;-81
2021/09/22 00:27:49;;;;;;;14.27;10.23;;;;;;;;;;5026859;28;20072;-82
2021/09/22 00:30:15;;;;;;;14.45;10.93;;;;;;;;;;5032330;28;20488;-79
2021/09/22 00:32:43;;;;;;;15.68;10.65;;;;;;;;;;5031372;28;20026;-77
2021/09/22 00:35:08;;;;;;;14.35;11.13;;;;;;;;;;5029999;28;20081;-78
2021/09/22 00:37:34;;;;;;;15.55;9.93;;;;;;;;;;5024623;28;20018;-79
2021/09/22 00:40:00;;;;;;;14.20;10.32;;;;;;;;;;5018744;28;20045;-80
2021/09/22 00:42:25;;;;;;;12.80;9.35;;;;;;;;;;5024260;28;20030;-80
2021/09/22 00:44:55;;;;;;;13.13;9.30;;;;;;;;;;5028358;28;20041;-81
2021/09/22 00:47:21;;;;;;;13.27;9.52;;;;;;;;;;5036680;28;20037;-79
2021/09/22 00:49:47;;;;;;;15.65;11.27;;;;;;;;;;5032796;28;20522;-77
2021/09/22 00:52:14;;;;;;;14.02;9.25;;;;;;;;;;5025534;28;20033;-83
2021/09/22 00:54:40;;;;;;;12.85;9.38;;;;;;;;;;5020292;28;20032;-80
2021/09/22 00:57:06;;;;;;;14.63;9.73;;;;;;;;;;5025777;28;20108;-79
2021/09/22 00:59:31;;;;;;;14.13;10.20;;;;;;;;;;5028848;28;20033;-77
2021/09/22 01:01:58;;;;;;;13.68;9.93;;;;;;;;;;5029106;28;20416;-77
2021/09/22 01:04:24;;;;;;;15.10;9.80;;;;;;;;;;5019629;28;20458;-78
2021/09/22 01:06:49;;;;;;;13.05;9.70;;;;;;;;;;5018788;28;20029;-79
2021/09/22 01:09:15;;;;;;;13.38;9.73;;;;;;;;;;5020031;28;20061;-80
2021/09/22 01:11:40;;;;;;;15.25;9.93;;;;;;;;;;5019978;28;20053;-79
2021/09/22 01:14:07;;;;;;;12.20;9.02;;;;;;;;;;5020151;28;20075;-78
2021/09/22 01:16:40;;;;;;;13.25;9.85;;;;;;;;;;5019624;28;20021;-82
2021/09/22 01:19:05;;;;;;;14.95;9.55;;;;;;;;;;5018264;28;20521;-82
2021/09/22 01:21:30;;;;;;;14.25;10.20;;;;;;;;;;5018292;28;20041;-79
2021/09/22 01:23:55;;;;;;;16.65;10.50;;;;;;;;;;5019057;28;20029;-80
2021/09/22 01:26:21;;;;;;;13.07;9.93;;;;;;;;;;5019460;28;20087;-79
2021/09/22 01:28:46;;;;;;;14.48;9.80;;;;;;;;;;5018834;28;20057;-80
2021/09/22 01:31:11;;;;;;;15.98;10.57;;;;;;;;;;5023981;28;20089;-78
2021/09/22 01:33:37;;;;;;;14.02;10.18;;;;;;;;;;5028714;28;20026;-78
2021/09/22 01:36:02;;;;;;;14.32;9.75;;;;;;;;;;5026813;28;20073;-77
2021/09/22 01:38:28;;;;;;;13.50;9.45;;;;;;;;;;5027441;28;20026;-77
2021/09/22 01:41:02;;;;;;;14.25;9.73;;;;;;;;;;5023913;28;20099;-78
2021/09/22 01:43:29;;;;;;;14.60;9.57;;;;;;;;;;5020075;28;20461;-78
2021/09/22 01:45:55;;;;;;;14.35;10.43;;;;;;;;;;5020246;28;20030;-80
2021/09/22 01:48:20;;;;;;;13.63;9.57;;;;;;;;;;5019296;28;20260;-78
2021/09/22 01:50:46;;;;;;;16.27;9.77;;;;;;;;;;5017801;28;20145;-79
2021/09/22 01:53:12;;;;;;;17.13;11.32;;;;;;;;;;5018789;28;20148;-77
2021/09/22 01:55:37;;;;;;;14.75;10.85;;;;;;;;;;5018551;28;20080;-79
2021/09/22 01:58:03;;;;;;;13.57;10.40;;;;;;;;;;5018428;28;20088;-82
2021/09/22 02:00:28;;;;;;;15.73;10.05;;;;;;;;;;5017351;28;20030;-77
2021/09/22 02:02:54;;;;;;;14.30;10.80;;;;;;;;;;5018653;28;20448;-79
2021/09/22 02:05:19;;;;;;;14.45;10.35;;;;;;;;;;5018517;28;20033;-78
2021/09/22 02:07:45;;;;;;;14.57;10.00;;;;;;;;;;5018311;28;20030;-80
2021/09/22 02:10:10;;;;;;;13.38;9.73;;;;;;;;;;5017670;28;20179;-78
2021/09/22 02:12:35;;;;;;;15.43;10.70;;;;;;;;;;5018500;28;20017;-81
2021/09/22 02:15:02;;;;;;;15.05;10.20;;;;;;;;;;5018521;28;20030;-77
2021/09/22 02:17:27;;;;;;;12.82;10.02;;;;;;;;;;5017388;28;20440;-79
2021/09/22 02:19:52;;;;;;;15.38;11.13;;;;;;;;;;5017890;28;20045;-79
2021/09/22 02:22:18;;;;;;;15.25;10.10;;;;;;;;;;5017091;28;20037;-78
2021/09/22 02:24:44;;;;;;;16.52;10.95;;;;;;;;;;5018292;28;20036;-81
2021/09/22 02:27:11;;;;;;;14.17;9.83;;;;;;;;;;5018082;28;20028;-81
2021/09/22 02:29:37;;;;;;;16.52;10.50;;;;;;;;;;5018027;28;20109;-78
2021/09/22 02:32:03;;;;;;;18.25;11.70;;;;;;;;;;5017953;28;20060;-80
2021/09/22 02:34:29;;;;;;;16.65;11.68;;;;;;;;;;5017785;28;20056;-83
2021/09/22 02:36:54;;;;;;;16.70;11.27;;;;;;;;;;5017851;28;20034;-78
2021/09/22 02:39:19;;;;;;;19.42;13.05;;;;;;;;;;5017524;28;20068;-81
2021/09/22 02:41:45;;;;;;;19.30;11.80;;;;;;;;;;5018138;28;20061;-81
2021/09/22 02:44:11;;;;;;;18.33;12.70;;;;;;;;;;5017687;28;20041;-81
2021/09/22 02:46:36;;;;;;;19.05;11.80;;;;;;;;;;5016432;28;20056;-78
2021/09/22 02:49:02;;;;;;;20.55;12.77;;;;;;;;;;5016902;28;20033;-79
2021/09/22 02:51:28;;;;;;;19.90;12.40;;;;;;;;;;5017841;28;20436;-79
2021/09/22 02:53:53;;;;;;;18.25;11.60;;;;;;;;;;5016607;28;20029;-81
2021/09/22 02:56:18;;;;;;;17.10;10.95;;;;;;;;;;5017829;28;20104;-80
2021/09/22 02:58:44;;;;;;;17.90;12.02;;;;;;;;;;5017546;28;20084;-80
2021/09/22 03:01:09;;;;;;;20.92;11.82;;;;;;;;;;5020523;28;20415;-78
2021/09/22 03:03:34;;;;;;;22.08;12.07;;;;;;;;;;5027288;28;20100;-77
2021/09/22 03:06:00;;;;;;;22.45;13.05;;;;;;;;;;5027373;28;20017;-77
2021/09/22 03:08:25;;;;;;;21.00;13.27;;;;;;;;;;5024115;28;20033;-80
2021/09/22 03:10:50;;;;;;;20.88;13.23;;;;;;;;;;5021337;28;20041;-79
2021/09/22 03:13:16;;;;;;;19.85;13.05;;;;;;;;;;5024382;28;20010;-78
2021/09/22 03:15:41;;;;;;;20.63;12.98;;;;;;;;;;5027883;28;20029;-78
2021/09/22 03:18:07;;;;;;;20.70;12.82;;;;;;;;;;5022421;28;20030;-82
2021/09/22 03:20:32;;;;;;;19.25;11.90;;;;;;;;;;5018649;28;20436;-79
2021/09/22 03:22:57;;;;;;;20.85;13.30;;;;;;;;;;5017845;28;20021;-80
2021/09/22 03:25:23;;;;;;;24.52;13.75;;;;;;;;;;5019278;28;20029;-79
2021/09/22 03:27:48;;;;;;;20.60;12.25;;;;;;;;;;5018351;28;20161;-77
2021/09/22 03:30:16;;;;;;;17.33;11.52;;;;;;;;;;5018312;28;20021;-79
2021/09/22 03:32:41;;;;;;;20.42;11.23;;;;;;;;;;5016508;28;20025;-79
2021/09/22 03:35:07;;;;;;;16.25;11.38;;;;;;;;;;5016889;28;20052;-79
2021/09/22 03:37:32;;;;;;;17.33;11.98;;;;;;;;;;5017406;28;20112;-79
2021/09/22 03:39:58;;;;;;;16.05;10.43;;;;;;;;;;5015929;28;20021;-81
2021/09/22 03:42:23;;;;;;;17.27;11.30;;;;;;;;;;5015620;28;20050;-78
2021/09/22 03:44:48;;;;;;;18.85;10.98;;;;;;;;;;5017100;28;20049;-80
2021/09/22 03:47:14;;;;;;;17.80;10.10;;;;;;;;;;5017363;28;20073;-82
2021/09/22 03:49:39;;;;;;;18.67;11.00;;;;;;;;;;5017196;28;20084;-77
2021/09/22 03:52:05;;;;;;;17.05;10.75;;;;;;;;;;5017547;28;20140;-82
2021/09/22 03:54:30;;;;;;;17.60;11.25;;;;;;;;;;5015897;28;20025;-78
2021/09/22 03:56:55;;;;;;;15.13;11.40;;;;;;;;;;5016459;28;20014;-79
2021/09/22 03:59:20;;;;;;;16.50;11.13;;;;;;;;;;5015300;28;20448;-81
2021/09/22 04:01:46;;;;;;;18.20;11.10;;;;;;;;;;5016637;28;20038;-80
2021/09/22 04:04:11;;;;;;;15.02;11.25;;;;;;;;;;5015629;28;20133;-81
2021/09/22 04:06:37;;;;;;;19.38;11.70;;;;;;;;;;5015453;28;20380;-79
2021/09/22 04:09:03;;;;;;;18.38;10.82;;;;;;;;;;5016267;28;20021;-80
2021/09/22 04:11:29;;;;;;;16.05;10.85;;;;;;;;;;5015692;28;20116;-79
2021/09/22 04:13:54;;;;;;;19.02;11.93;;;;;;;;;;5016336;28;20364;-78
2021/09/22 04:16:19;;;;;;;18.42;12.23;;;;;;;;;;5016271;28;20021;-81
2021/09/22 04:18:45;;;;;;;17.55;12.07;;;;;;;;;;5015259;28;20436;-80
2021/09/22 04:21:10;;;;;;;16.52;11.68;;;;;;;;;;5015421;28;20088;-79
2021/09/22 04:23:35;;;;;;;18.67;11.55;;;;;;;;;;5016471;28;20026;-79
2021/09/22 04:26:01;;;;;;;18.63;11.75;;;;;;;;;;5015587;28;20030;-80
2021/09/22 04:28:26;;;;;;;17.52;11.70;;;;;;;;;;5016093;28;20030;-78
2021/09/22 04:30:52;;;;;;;19.95;12.48;;;;;;;;;;5016331;28;20466;-81
2021/09/22 04:33:17;;;;;;;18.20;12.02;;;;;;;;;;5015243;28;20033;-80
2021/09/22 04:35:42;;;;;;;23.83;13.40;;;;;;;;;;5015228;28;20049;-81
2021/09/22 04:38:08;;;;;;;21.98;13.05;;;;;;;;;;5014917;28;20458;-77
2021/09/22 04:40:34;;;;;;;19.80;12.93;;;;;;;;;;5016006;28;20470;-79
2021/09/22 04:43:00;;;;;;;23.95;14.32;;;;;;;;;;5016325;28;20052;-80
2021/09/22 04:45:27;;;;;;;25.98;14.68;;;;;;;;;;5016188;28;20348;-78
2021/09/22 04:47:54;;;;;;;24.63;13.93;;;;;;;;;;5016023;28;20405;-79
2021/09/22 04:50:20;;;;;;;24.17;13.85;;;;;;;;;;5015673;28;20435;-81
2021/09/22 04:52:46;;;;;;;22.77;13.13;;;;;;;;;;5015961;28;20041;-79
2021/09/22 04:55:12;;;;;;;23.73;14.27;;;;;;;;;;5015568;28;20037;-81
2021/09/22 04:57:39;;;;;;;23.20;14.17;;;;;;;;;;5016099;28;20029;-79
2021/09/22 05:00:05;;;;;;;25.23;15.13;;;;;;;;;;5021813;28;20030;-77
2021/09/22 05:02:31;;;;;;;25.30;13.63;;;;;;;;;;5019485;28;20034;-78
2021/09/22 05:04:56;;;;;;;23.48;14.57;;;;;;;;;;5019770;28;20164;-82
2021/09/22 05:07:21;;;;;;;26.42;14.52;;;;;;;;;;5019882;28;20180;-79
2021/09/22 05:09:47;;;;;;;22.10;14.52;;;;;;;;;;5017200;28;20033;-82
2021/09/22 05:12:12;;;;;;;27.95;14.07;;;;;;;;;;5016359;28;20018;-79
2021/09/22 05:14:37;;;;;;;20.45;13.48;;;;;;;;;;5015947;28;20463;-79
2021/09/22 05:17:03;;;;;;;21.58;13.05;;;;;;;;;;5016252;28;20033;-79
2021/09/22 05:19:28;;;;;;;23.52;14.18;;;;;;;;;;5024805;28;20100;-77
2021/09/22 05:21:54;;;;;;;20.75;12.98;;;;;;;;;;5025147;28;20034;-78
2021/09/22 05:24:19;;;;;;;20.75;12.90;;;;;;;;;;5023149;28;20026;-80
2021/09/22 05:26:45;;;;;;;18.70;12.02;;;;;;;;;;5017179;28;20034;-79
2021/09/22 05:29:11;;;;;;;18.35;12.70;;;;;;;;;;5017390;28;20025;-79
2021/09/22 05:31:36;;;;;;;22.65;13.80;;;;;;;;;;5014671;28;20037;-81
2021/09/22 05:34:02;;;;;;;20.38;14.18;;;;;;;;;;5016275;28;20440;-81
2021/09/22 05:36:27;;;;;;;21.02;13.73;;;;;;;;;;5018660;28;20026;-80
2021/09/22 05:38:53;;;;;;;21.08;14.10;;;;;;;;;;5018272;28;20018;-80
2021/09/22 05:41:18;;;;;;;20.52;12.77;;;;;;;;;;5019348;28;20034;-81
2021/09/22 05:43:44;;;;;;;22.25;14.27;;;;;;;;;;5040821;28;20025;-82
2021/09/22 05:46:09;;;;;;;20.05;13.80;;;;;;;;;;5040993;28;20085;-81
2021/09/22 05:48:34;;;;;;;19.70;13.00;;;;;;;;;;5031594;28;20034;-83
2021/09/22 05:51:00;;;;;;;22.35;13.00;;;;;;;;;;5022084;28;20030;-80
2021/09/22 05:53:25;;;;;;;19.10;13.30;;;;;;;;;;5035173;28;20028;-79
2021/09/22 05:55:50;;;;;;;17.35;12.13;;;;;;;;;;5040460;28;20033;-78
2021/09/22 05:58:19;;;;;;;19.10;11.93;;;;;;;;;;5036469;28;20080;-78
2021/09/22 06:00:44;;;;;;;21.48;12.73;;;;;;;;;;5036811;28;20041;-82
2021/09/22 06:03:10;;;;;;;17.60;11.38;;;;;;;;;;5020251;28;20033;-80
2021/09/22 06:05:36;;;;;;;19.58;12.77;;;;;;;;;;5019461;28;20509;-77
2021/09/22 06:08:01;;;;;;;19.40;13.35;;;;;;;;;;5017467;28;20026;-81
2021/09/22 06:10:27;;;;;;;20.10;12.40;;;;;;;;;;5018715;28;20037;-79
2021/09/22 06:12:52;;;;;;;19.88;11.93;;;;;;;;;;5018317;28;20036;-79
2021/09/22 06:15:17;;;;;;;16.95;12.85;;;;;;;;;;5017639;28;20359;-78
2021/09/22 06:17:43;;;;;;;18.73;12.05;;;;;;;;;;5018342;28;20442;-79
2021/09/22 06:20:09;;;;;;;19.38;13.38;;;;;;;;;;5017107;28;20041;-79
2021/09/22 06:22:34;;;;;;;20.30;12.93;;;;;;;;;;5017095;28;20034;-81
2021/09/22 06:24:59;;;;;;;20.60;13.10;;;;;;;;;;5018308;28;20172;-80
2021/09/22 06:27:25;;;;;;;20.60;13.35;;;;;;;;;;5018121;28;20022;-77
2021/09/22 06:29:50;;;;;;;24.77;14.00;;;;;;;;;;5018233;28;20037;-82
2021/09/22 06:32:16;;;;;;;23.30;14.18;;;;;;;;;;5017786;28;20025;-81
2021/09/22 06:34:42;;;;;;;21.05;13.18;;;;;;;;;;5017888;28;20053;-84
2021/09/22 06:37:08;;;;;;;20.60;14.32;;;;;;;;;;5018265;28;20026;-79
2021/09/22 06:39:33;;;;;;;25.13;14.57;;;;;;;;;;5018683;28;20373;-78
2021/09/22 06:41:59;;;;;;;20.50;13.77;;;;;;;;;;5016770;28;20018;-82
2021/09/22 06:44:24;;;;;;;21.42;14.45;;;;;;;;;;5018045;28;20029;-78
2021/09/22 06:46:49;;;;;;;20.67;13.82;;;;;;;;;;5016557;28;20026;-83
2021/09/22 06:49:14;;;;;;;21.13;13.48;;;;;;;;;;5018062;28;20395;-82
2021/09/22 06:51:40;;;;;;;22.13;14.13;;;;;;;;;;5018068;28;20029;-78
2021/09/22 06:54:05;;;;;;;23.75;14.13;;;;;;;;;;5016321;28;20105;-80
2021/09/22 06:56:30;;;;;;;23.63;15.13;;;;;;;;;;5017605;28;20022;-78
2021/09/22 06:58:56;;;;;;;23.20;15.80;;;;;;;;;;5017204;28;20491;-80
2021/09/22 07:01:21;;;;;;;23.23;15.27;;;;;;;;;;5017566;28;20027;-79
2021/09/22 07:03:47;;;;;;;23.05;14.57;;;;;;;;;;5017369;28;20025;-78
2021/09/22 07:06:12;;;;;;;20.92;14.25;;;;;;;;;;5016322;28;20048;-80
2021/09/22 07:08:41;;;;;;;23.60;13.65;;;;;;;;;;5016998;28;20030;-81
2021/09/22 07:11:07;;;;;;;21.50;13.70;;;;;;;;;;5017800;28;20041;-80
2021/09/22 07:13:33;;;;;;;20.58;13.40;;;;;;;;;;5016083;28;20037;-82
2021/09/22 07:15:59;;;;;;;19.48;13.57;;;;;;;;;;5017578;28;20037;-82
2021/09/22 07:18:24;;;;;;;23.10;13.75;;;;;;;;;;5016468;28;20040;-80
2021/09/22 07:20:50;;;;;;;19.95;13.98;;;;;;;;;;5017254;28;20022;-79
2021/09/22 07:23:15;;;;;;;21.65;13.82;;;;;;;;;;5017366;28;20436;-82
2021/09/22 07:25:42;;;;;;;19.90;12.93;;;;;;;;;;5017251;28;20026;-78
2021/09/22 07:28:07;;;;;;;19.23;13.73;;;;;;;;;;5017653;28;20449;-78
2021/09/22 07:30:33;;;;;;;22.67;13.85;;;;;;;;;;5019446;28;20140;-80
2021/09/22 07:32:59;;;;;;;20.20;13.88;;;;;;;;;;5021288;28;20084;-79
2021/09/22 07:35:25;;;;;;;22.13;13.48;;;;;;;;;;5018682;28;20091;-79
2021/09/22 07:37:51;;;;;;;17.25;12.88;;;;;;;;;;5026384;28;20026;-77
2021/09/22 07:40:16;;;;;;;16.57;12.57;;;;;;;;;;5024754;28;20061;-78
2021/09/22 07:42:42;;;;;;;21.93;13.63;;;;;;;;;;5024596;28;20034;-81
2021/09/22 07:45:08;;;;;;;15.40;12.50;;;;;;;;;;5005986;28;20036;-77
2021/09/22 07:47:33;;;;;;;16.20;13.00;;;;;;;;;;5021944;28;20029;-83
2021/09/22 07:49:59;;;;;;;17.03;12.33;;;;;;;;;;5023857;28;20025;-82
2021/09/22 07:52:24;;;;;;;17.13;12.33;;;;;;;;;;5024729;28;20061;-78
2021/09/22 07:54:50;;;;;;;15.87;11.60;;;;;;;;;;5025468;28;20049;-78
2021/09/22 07:57:17;;;;;;;15.87;12.33;;;;;;;;;;5022236;28;20326;-78
2021/09/22 07:59:43;;;;;;;16.60;12.48;;;;;;;;;;5023286;28;20041;-79
2021/09/22 08:02:09;;;;;;;18.93;13.17;;;;;;;;;;5023097;28;20029;-77
2021/09/22 08:04:35;;;;;;;14.43;11.70;;;;;;;;;;5025295;28;20264;-77
2021/09/22 08:07:02;;;;;;;15.10;12.47;;;;;;;;;;5022732;28;20029;-77
2021/09/22 08:09:27;;;;;;;14.38;11.63;;;;;;;;;;5025123;28;20045;-77
2021/09/22 08:11:53;;;;;;;14.07;11.93;;;;;;;;;;5026800;28;20059;-79
2021/09/22 08:14:18;;;;;;;15.97;13.30;;;;;;;;;;5023247;28;20026;-79
2021/09/22 08:16:47;;;;;;;16.17;12.13;;;;;;;;;;5024513;28;20026;-79
2021/09/22 08:19:13;;;;;;;13.93;11.35;;;;;;;;;;5023301;28;20117;-78
2021/09/22 08:21:39;;;;;;;15.15;11.07;;;;;;;;;;5018856;28;20030;-79
2021/09/22 08:24:05;;;;;;;13.60;11.30;;;;;;;;;;5020625;28;20448;-81
2021/09/22 08:26:30;;;;;;;15.38;11.77;;;;;;;;;;5020408;28;20427;-80
2021/09/22 08:28:56;;;;;;;16.03;12.13;;;;;;;;;;5020048;28;20029;-78
2021/09/22 08:31:22;;;;;;;13.95;11.55;;;;;;;;;;5021810;28;20038;-81
2021/09/22 08:33:47;;;;;;;13.20;10.87;;;;;;;;;;5020570;28;20069;-78
2021/09/22 08:36:13;;;;;;;12.70;10.97;;;;;;;;;;5023003;28;20054;-80
2021/09/22 08:38:38;;;;;;;14.87;11.03;;;;;;;;;;5023194;28;20046;-80
2021/09/22 08:41:04;;;;;;;14.57;11.30;;;;;;;;;;5023274;28;20064;-78
2021/09/22 08:43:31;;;;;;;15.93;11.23;;;;;;;;;;5024449;28;20264;-78
2021/09/22 08:45:56;;;;;;;13.73;11.82;;;;;;;;;;5021862;28;20068;-82
2021/09/22 08:48:24;;;;;;;15.10;13.20;;;;;;;;;;5018114;28;20389;-82
2021/09/22 08:50:51;;;;;;;16.60;12.80;;;;;;;;;;5017552;28;20025;-76
2021/09/22 08:53:16;;;;;;;16.55;13.00;;;;;;;;;;5017862;28;20030;-79
2021/09/22 08:55:42;;;;;;;19.17;14.97;;;;;;;;;;5018372;28;20100;-80
2021/09/22 08:58:07;;;;;;;24.55;13.15;;;;;;;;;;5016223;28;20021;-79
2021/09/22 09:00:33;;;;;;;17.80;14.20;;;;;;;;;;5016657;28;20030;-79
2021/09/22 09:02:59;;;;;;;15.18;13.57;;;;;;;;;;5018498;28;20073;-81
2021/09/22 09:05:24;;;;;;;23.47;13.67;;;;;;;;;;5016878;28;20041;-79
2021/09/22 09:07:55;;;;;;;17.33;13.33;;;;;;;;;;5018342;28;20026;-80
2021/09/22 09:10:29;;;;;;;19.58;13.18;;;;;;;;;;5017592;28;20021;-79
2021/09/22 09:12:59;;;;;;;16.20;13.00;;;;;;;;;;5021884;28;20455;-77
2021/09/22 09:15:30;;;;;;;17.00;12.82;;;;;;;;;;5022864;28;20022;-81
2021/09/22 09:17:59;;;;;;;14.20;12.45;;;;;;;;;;5022972;28;20048;-80
2021/09/22 09:20:27;;;;;;;14.52;12.68;;;;;;;;;;5022969;28;20025;-80
2021/09/22 09:23:01;;;;;;;15.90;12.80;;;;;;;;;;5022010;28;20036;-76
2021/09/22 09:25:28;;;;;;;14.30;12.63;;;;;;;;;;5022585;28;20033;-80
2021/09/22 09:27:54;;;;;;;14.93;11.63;;;;;;;;;;5022506;28;20026;-82
2021/09/22 09:30:23;;;;;;;16.38;11.70;;;;;;;;;;5020572;28;20132;-80
2021/09/22 09:32:49;;;;;;;13.40;11.85;;;;;;;;;;5022580;28;20041;-79
2021/09/22 09:35:21;;;;;;;12.98;11.57;;;;;;;;;;5022574;28;20053;-80
2021/09/22 09:37:49;;;;;;;13.68;12.10;;;;;;;;;;5029608;28;20048;-79
2021/09/22 09:40:17;;;;;;;15.93;13.23;;;;;;;;;;5030221;28;20099;-77
2021/09/22 09:42:43;;;;;;;14.10;11.65;;;;;;;;;;5027995;28;20034;-80
2021/09/22 09:45:09;;;;;;;13.80;12.35;;;;;;;;;;5027259;28;20034;-78
2021/09/22 09:47:35;;;;;;;;;;;;;;;;;;5026849;28;20044;-78
2021/09/22 09:50:22;;;;;;;14.38;11.52;;;;;;;;;;5023256;28;19920;-79
2021/09/22 09:52:51;;;;;;;13.32;11.63;;;;;;;;;;5022773;28;20064;-81
2021/09/22 09:55:16;;;;;;;13.13;10.13;;;;;;;;;;5021969;28;20125;-80
2021/09/22 09:57:49;;;;;;;14.63;10.70;;;;;;;;;;5020723;28;20057;-78
2021/09/22 10:00:41;;;;;;;12.00;10.80;;;;;;;;;;5020981;28;20029;-79
2021/09/22 10:03:17;;;;;;;13.27;11.00;;;;;;;;;;5022267;28;20026;-81
2021/09/22 10:05:43;;;;;;;11.85;10.73;;;;;;;;;;5022058;28;20030;-80
2021/09/22 10:08:13;;;;;;;12.32;10.45;;;;;;;;;;5021418;28;20434;-79
2021/09/22 10:10:44;;;;;;;11.68;10.43;;;;;;;;;;5022625;28;20041;-78
2021/09/22 10:13:12;;;;;;;13.07;11.77;;;;;;;;;;5024745;28;20053;-78
2021/09/22 10:15:42;;;;;;;11.10;9.95;;;;;;;;;;5026210;28;20026;-78
2021/09/22 10:18:09;;;;;;;10.77;9.70;;;;;;;;;;5026957;28;20049;-79
2021/09/22 10:20:37;;;;;;;11.65;10.52;;;;;;;;;;5030169;28;20021;-78
2021/09/22 10:23:03;;;;;;;12.38;11.13;;;;;;;;;;5026463;28;20080;-81
2021/09/22 10:25:28;;;;;;;12.05;10.10;;;;;;;;;;5027855;28;20137;-76
2021/09/22 10:27:53;;;;;;;;;;;;;;;;;;5025089;28;20463;-79
2021/09/22 10:30:31;;;;;;;;;;;;;;;;;;5027172;28;19917;-76
2021/09/22 10:32:57;;;;;;;10.25;9.15;;;;;;;;;;5026663;28;19920;-77
2021/09/22 10:35:25;;;;;;;;;;;;;;;;;;5025895;28;20053;-80
2021/09/22 10:37:55;;;;;;;13.95;9.30;;;;;;;;;;5022754;28;19909;-77
2021/09/22 10:40:50;;;;;;;11.43;9.43;;;;;;;;;;5021712;28;20030;-80
2021/09/22 10:43:15;;;;;;;11.40;8.82;;;;;;;;;;5022364;28;20018;-81
2021/09/22 10:45:46;;;;;;;10.83;9.73;;;;;;;;;;5023567;28;20026;-80
2021/09/22 10:48:22;;;;;;;10.27;9.15;;;;;;;;;;5026504;28;20284;-77
2021/09/22 10:50:56;;;;;;;10.10;9.02;;;;;;;;;;5023336;28;20068;-77
2021/09/22 10:53:30;;;;;;;9.20;8.25;;;;;;;;;;5023628;28;20081;-77
2021/09/22 10:56:11;;;;;;;9.40;8.50;;;;;;;;;;5025086;28;20068;-77
2021/09/22 10:58:41;;;;;;;9.80;8.80;;;;;;;;;;5023571;28;20364;-78
2021/09/22 11:01:07;;;;;;;11.23;9.18;;;;;;;;;;5022087;28;20099;-80
2021/09/22 11:03:45;;;;;;;9.52;8.52;;;;;;;;;;5027209;28;20021;-78
2021/09/22 11:06:44;;;;;;;10.90;8.57;;;;;;;;;;5026214;28;20022;-77
2021/09/22 11:09:13;;;;;;;10.30;8.85;;;;;;;;;;5026479;28;20037;-78
2021/09/22 11:12:00;;;;;;;9.73;8.73;;;;;;;;;;5024345;28;20021;-79
2021/09/22 11:14:32;;;;;;;9.70;7.68;;;;;;;;;;5018466;28;20097;-79
2021/09/22 11:17:02;;;;;;;9.48;8.48;;;;;;;;;;5017925;28;20345;-79
2021/09/22 11:19:28;;;;;;;10.82;8.27;;;;;;;;;;5019714;28;20057;-77
2021/09/22 11:21:54;;;;;;;9.07;8.18;;;;;;;;;;5019078;28;20045;-79
2021/09/22 11:24:23;;;;;;;9.13;8.23;;;;;;;;;;5017795;28;20037;-77
2021/09/22 11:26:53;;;;;;;9.02;8.10;;;;;;;;;;5021221;28;20018;-77
2021/09/22 11:29:45;;;;;;;10.05;8.05;;;;;;;;;;5020306;28;20119;-80
2021/09/22 11:32:35;;;;;;;9.45;8.50;;;;;;;;;;5018257;28;20474;-78
2021/09/22 11:35:15;;;;;;;9.38;8.32;;;;;;;;;;5018733;28;20116;-78
2021/09/22 11:37:56;;;;;;;9.55;8.60;;;;;;;;;;5016247;28;20156;-79
2021/09/22 11:40:30;;;;;;;10.70;9.18;;;;;;;;;;5017706;28;20417;-80
2021/09/22 11:42:58;;;;;;;10.65;9.55;;;;;;;;;;5018164;28;20125;-83
2021/09/22 11:45:27;;;;;;;10.63;9.50;;;;;;;;;;5017408;28;20087;-79
2021/09/22 11:47:52;;;;;;;10.15;9.05;;;;;;;;;;5018123;28;20044;-83
2021/09/22 11:50:34;;;;;;;11.10;10.02;;;;;;;;;;5017358;28;20025;-81
2021/09/22 11:53:00;;;;;;;10.70;9.60;;;;;;;;;;5025543;28;20018;-79
2021/09/22 11:55:25;;;;;;;10.27;9.27;;;;;;;;;;5023583;28;20367;-78
2021/09/22 11:57:51;;;;;;;9.63;8.73;;;;;;;;;;5028994;28;20006;-77
2021/09/22 12:00:21;;;;;;;11.32;8.85;;;;;;;;;;5026718;28;20060;-79
2021/09/22 12:02:47;;;;;;;9.20;8.32;;;;;;;;;;5026490;28;20026;-79
2021/09/22 12:05:17;;;;;;;9.00;8.10;;;;;;;;;;5023949;28;20041;-80
2021/09/22 12:07:44;;;;;;;9.27;8.38;;;;;;;;;;5024673;28;20025;-82
2021/09/22 12:10:10;;;;;;;8.13;7.18;;;;;;;;;;5022605;28;20098;-82
2021/09/22 12:12:37;;;;;;;8.40;7.60;;;;;;;;;;5020433;28;20125;-77
2021/09/22 12:15:06;;;;;;;8.20;7.40;;;;;;;;;;5025613;28;20040;-79
2021/09/22 12:17:34;;;;;;;9.57;8.23;;;;;;;;;;5025724;28;20018;-79
2021/09/22 12:20:02;;;;;;;8.50;7.70;;;;;;;;;;5026010;28;20025;-77
2021/09/22 12:22:30;;;;;;;9.57;8.65;;;;;;;;;;5022512;28;20064;-79
2021/09/22 12:24:57;;;;;;;9.77;8.77;;;;;;;;;;5022961;28;20116;-82
2021/09/22 12:27:25;;;;;;;9.10;8.20;;;;;;;;;;5025369;28;20045;-77
2021/09/22 12:29:56;;;;;;;11.65;9.57;;;;;;;;;;5025916;28;20033;-81
2021/09/22 12:32:27;;;;;;;10.85;9.65;;;;;;;;;;5021700;28;20048;-81
2021/09/22 12:34:54;;;;;;;10.05;9.05;;;;;;;;;;5020472;28;20054;-81
2021/09/22 12:37:25;;;;;;;9.90;9.00;;;;;;;;;;5019995;28;20022;-79
2021/09/22 12:40:03;;;;;;;12.07;9.77;;;;;;;;;;5021426;28;20119;-80
2021/09/22 12:42:42;;;;;;;11.07;9.60;;;;;;;;;;5020925;28;20034;-80
2021/09/22 12:45:20;;;;;;;10.00;8.77;;;;;;;;;;5020511;28;20025;-81
2021/09/22 12:47:54;;;;;;;10.52;9.43;;;;;;;;;;5022629;28;20039;-81
2021/09/22 12:50:41;;;;;;;10.20;9.23;;;;;;;;;;5020320;28;20037;-84
2021/09/22 12:53:12;;;;;;;9.25;8.02;;;;;;;;;;5021438;28;20116;-82
2021/09/22 12:55:42;;;;;;;8.75;7.90;;;;;;;;;;5024847;28;20029;-82
2021/09/22 12:58:10;;;;;;;7.80;7.00;;;;;;;;;;5023942;28;20408;-81
2021/09/22 13:00:35;;;;;;;8.10;6.88;;;;;;;;;;5024185;28;20041;-84
2021/09/22 13:03:17;;;;;;;7.50;6.72;;;;;;;;;;5024815;28;20422;-80
2021/09/22 13:05:51;;;;;;;7.78;6.97;;;;;;;;;;5024294;28;20034;-80
2021/09/22 13:08:19;;;;;;;7.72;6.93;;;;;;;;;;5024029;28;20038;-83
2021/09/22 13:11:07;;;;;;;7.93;7.10;;;;;;;;;;5023297;28;20041;-84
2021/09/22 13:13:41;;;;;;;8.13;6.68;;;;;;;;;;5021260;28;20033;-81
2021/09/22 13:16:12;;;;;;;8.88;6.70;;;;;;;;;;5021592;28;20022;-81
2021/09/22 13:18:38;;;;;;;9.38;7.35;;;;;;;;;;5020651;28;20049;-80
2021/09/22 13:21:03;;;;;;;8.93;7.25;;;;;;;;;;5026056;28;20464;-81
2021/09/22 13:23:29;;;;;;;7.60;6.50;;;;;;;;;;5030571;28;20034;-82
2021/09/22 13:25:56;;;;;;;10.48;7.00;;;;;;;;;;5028618;28;20072;-79
2021/09/22 13:28:22;;;;;;;7.63;6.82;;;;;;;;;;5025019;28;20022;-81
2021/09/22 13:30:48;;;;;;;8.30;6.25;;;;;;;;;;5025511;28;20036;-79
2021/09/22 13:33:14;;;;;;;8.57;6.82;;;;;;;;;;5030192;28;20030;-79
2021/09/22 13:35:40;;;;;;;8.02;6.20;;;;;;;;;;5031446;28;20107;-78
2021/09/22 13:38:06;;;;;;;8.75;6.38;;;;;;;;;;5031374;28;20030;-78
2021/09/22 13:40:33;;;;;;;11.98;6.05;;;;;;;;;;5027670;28;20088;-82
2021/09/22 13:42:58;;;;;;;9.02;6.82;;;;;;;;;;5029123;28;20060;-81
2021/09/22 13:45:24;;;;;;;8.00;6.40;;;;;;;;;;5025866;28;20022;-79
2021/09/22 13:47:50;;;;;;;8.27;6.13;;;;;;;;;;5026963;28;20061;-82
2021/09/22 13:50:15;;;;;;;9.05;7.05;;;;;;;;;;5021327;28;20030;-81
2021/09/22 13:52:41;;;;;;;7.93;6.83;;;;;;;;;;5021177;28;20025;-79
2021/09/22 13:55:07;;;;;;;9.52;7.03;;;;;;;;;;5022763;28;20030;-82
2021/09/22 13:57:32;;;;;;;7.85;7.05;;;;;;;;;;5018997;28;20030;-80
2021/09/22 13:59:58;;;;;;;7.97;6.93;;;;;;;;;;5020049;28;20025;-80
2021/09/22 14:02:23;;;;;;;6.73;6.03;;;;;;;;;;5027040;28;20040;-79
2021/09/22 14:04:48;;;;;;;8.13;7.30;;;;;;;;;;5026138;28;20073;-81
2021/09/22 14:07:17;;;;;;;7.03;6.00;;;;;;;;;;5023951;28;20033;-78
2021/09/22 14:09:43;;;;;;;8.00;6.28;;;;;;;;;;5025151;28;20380;-80
2021/09/22 14:12:09;;;;;;;7.20;5.93;;;;;;;;;;5024385;28;20025;-81
2021/09/22 14:14:34;;;;;;;8.60;6.90;;;;;;;;;;5026649;28;20300;-81
2021/09/22 14:17:00;;;;;;;7.50;6.20;;;;;;;;;;5026164;28;20068;-80
2021/09/22 14:19:25;;;;;;;8.40;6.37;;;;;;;;;;5023984;28;20022;-79
2021/09/22 14:21:50;;;;;;;9.90;8.10;;;;;;;;;;5026906;28;20026;-79
2021/09/22 14:24:17;;;;;;;8.47;6.50;;;;;;;;;;5028644;28;20033;-81
2021/09/22 14:26:42;;;;;;;6.68;5.45;;;;;;;;;;5029048;28;20034;-78